ADDS METAR Data INFO
IDs: Format: Raw Decoded Include TAF

Data at: 1749 UTC 21 Oct 2017

KOJA 211735Z AUTO 18015G21KT 10SM BKN024 OVC032 23/18 A2983 RMK AO2
KOJA 211715Z AUTO 19017G26KT 10SM SCT024 SCT030 23/18 A2984 RMK AO2
KOJA 211655Z AUTO 18022G28KT 10SM CLR 24/18 A2982 RMK AO2
KOJA 211635Z AUTO 19016G23KT 10SM SCT027 SCT035 SCT042 23/18 A2983 RMK AO2
KOJA 211615Z AUTO 19016G22KT 10SM SCT023 BKN029 OVC035 22/18 A2984 RMK AO2
KOJA 211555Z AUTO 19014G22KT 10SM SCT022 BKN029 OVC034 22/18 A2984 RMK AO2
KOJA 211535Z AUTO 19017G26KT 10SM SCT026 BKN031 BKN120 22/18 A2984 RMK AO2
KOJA 211515Z AUTO 19021G28KT 10SM SCT021 SCT028 OVC033 22/18 A2983 RMK AO2 LTG DSNT NE
KOJA 211455Z AUTO 19017G27KT 10SM SCT019 BKN025 OVC029 21/18 A2984 RMK AO2
KOJA 211435Z AUTO 19014G24KT 10SM SCT018 OVC029 21/18 A2984 RMK AO2
KOJA 211415Z AUTO 19013G24KT 10SM SCT019 OVC029 21/18 A2983 RMK AO2
KOJA 211355Z AUTO 19017G25KT 10SM BKN021 OVC029 21/18 A2982 RMK AO2
KOJA 211335Z AUTO 18018G24KT 10SM BKN018 OVC024 21/18 A2981 RMK AO2
KOJA 211315Z AUTO 19013G21KT 10SM SCT016 OVC024 20/18 A2981 RMK AO2
KOJA 211255Z AUTO 18016G22KT 10SM BKN022 OVC027 20/18 A2981 RMK AO2
KOJA 211235Z AUTO 18014G23KT 10SM OVC023 20/18 A2981 RMK AO2
KOJA 211215Z AUTO 19015G23KT 10SM OVC023 20/18 A2980 RMK AO2
KOJA 211155Z AUTO 18017G22KT 10SM BKN024 OVC029 20/18 A2980 RMK AO2
KOJA 211135Z AUTO 18020G26KT 10SM OVC024 20/18 A2980 RMK AO2
KOJA 211115Z AUTO 18020G26KT 10SM BKN026 20/18 A2979 RMK AO2
KOJA 211055Z AUTO 18018G25KT 10SM SCT026 20/18 A2978 RMK AO2
KOJA 211035Z AUTO 18015G25KT 10SM CLR 20/18 A2979 RMK AO2
KOJA 211015Z AUTO 18018G23KT 10SM CLR 20/18 A2978 RMK AO2
KOJA 210955Z AUTO 18017G22KT 10SM CLR 20/18 A2978 RMK AO2
KOJA 210935Z AUTO 18013G19KT 10SM SCT026 19/18 A2978 RMK AO2
KOJA 210915Z AUTO 18013G17KT 10SM CLR 19/18 A2979 RMK AO2
KOJA 210855Z AUTO 18012G18KT 10SM CLR 19/18 A2979 RMK AO2
KOJA 210835Z AUTO 18010G18KT 10SM SCT009 SCT014 19/18 A2979 RMK AO2
KOJA 210815Z AUTO 17014G22KT 10SM SCT009 19/18 A2979 RMK AO2
KOJA 210755Z AUTO 17015G21KT 10SM CLR 19/18 A2979 RMK AO2
KOJA 210735Z AUTO 17017G24KT 10SM CLR 20/18 A2978 RMK AO2
KOJA 210715Z AUTO 18021G28KT 10SM CLR 20/18 A2978 RMK AO2
KOJA 210655Z AUTO 18017G22KT 10SM CLR 20/18 A2979 RMK AO2
KOJA 210635Z AUTO 17017G25KT 10SM CLR 20/18 A2979 RMK AO2
KOJA 210615Z AUTO 18017G25KT 10SM CLR 21/18 A2980 RMK AO2
KOJA 210555Z AUTO 18017G22KT 10SM CLR 21/18 A2981 RMK AO2
KOJA 210535Z AUTO 17015G21KT 10SM CLR 21/18 A2981 RMK AO2
KOJA 210515Z AUTO 18021G26KT 10SM CLR 21/18 A2982 RMK AO2
KOJA 210455Z AUTO 17016G20KT 10SM CLR 21/18 A2982 RMK AO2
KOJA 210435Z AUTO 17015G22KT 10SM CLR 21/18 A2982 RMK AO2
KOJA 210415Z AUTO 17015KT 10SM CLR 21/18 A2984 RMK AO2
KOJA 210355Z AUTO 17012G19KT 10SM CLR 21/18 A2984 RMK AO2
KOJA 210335Z AUTO 17016G20KT 10SM CLR 21/18 A2983 RMK AO2
KOJA 210315Z AUTO 17016G23KT 10SM CLR 21/17 A2983 RMK AO2
KOJA 210255Z AUTO 17015G24KT 10SM CLR 21/17 A2982 RMK AO2
KOJA 210235Z AUTO 17015G23KT 10SM CLR 21/17 A2982 RMK AO2
KOJA 210215Z AUTO 16015G21KT 10SM CLR 21/17 A2982 RMK AO2
KOJA 210155Z AUTO 17019G23KT 10SM CLR 21/18 A2982 RMK AO2
KOJA 210135Z AUTO 16015G21KT 10SM CLR 21/17 A2982 RMK AO2
KOJA 210115Z AUTO 16013G19KT 10SM CLR 22/17 A2980 RMK AO2
KOJA 210055Z AUTO 16013G19KT 10SM CLR 22/18 A2981 RMK AO2
KOJA 210035Z AUTO 16015G21KT 10SM CLR 23/17 A2981 RMK AO2
KOJA 210015Z AUTO 16015G19KT 10SM CLR 23/17 A2980 RMK AO2
KOJA 202355Z AUTO 16015G23KT 10SM SCT044 23/17 A2980 RMK AO2
KOJA 202335Z AUTO 16018G22KT 10SM CLR 24/17 A2981 RMK AO2
KOJA 202315Z AUTO 17017G27KT 10SM CLR 25/16 A2980 RMK AO2
KOJA 202255Z AUTO 17020G26KT 10SM CLR 25/16 A2982 RMK AO2
KOJA 202235Z AUTO 17018G27KT 10SM CLR 26/16 A2982 RMK AO2
KOJA 202215Z AUTO 18015G22KT 10SM CLR 25/16 A2983 RMK AO2
KOJA 202155Z AUTO 17019G25KT 10SM CLR 25/16 A2983 RMK AO2
KOJA 202135Z AUTO 18023G28KT 10SM SCT036 25/16 A2984 RMK AO2
KOJA 202115Z AUTO 18017G26KT 10SM CLR 24/16 A2984 RMK AO2
KOJA 202055Z AUTO 17022G29KT 10SM SCT035 24/16 A2984 RMK AO2
KOJA 202035Z AUTO 19017G25KT 10SM SCT035 SCT042 SCT120 23/16 A2985 RMK AO2
KOJA 202015Z AUTO 18017G24KT 10SM SCT034 BKN042 BKN048 24/16 A2986 RMK AO2
KOJA 201955Z AUTO 17016G24KT 10SM SCT039 SCT048 BKN110 23/16 A2986 RMK AO2
KOJA 201935Z AUTO 17022G28KT 10SM SCT036 BKN043 24/16 A2987 RMK AO2
KOJA 201915Z AUTO 17018G26KT 10SM SCT034 BKN043 24/16 A2989 RMK AO2
KOJA 201855Z AUTO 17018G24KT 10SM SCT034 BKN039 BKN049 24/16 A2991 RMK AO2
KOJA 201835Z AUTO 18020G24KT 10SM SCT034 24/16 A2992 RMK AO2
KOJA 201815Z AUTO 18017G23KT 10SM SCT034 BKN043 23/16 A2992 RMK AO2
KOJA 201755Z AUTO 17018G26KT 10SM SCT036 SCT043 SCT049 25/16 A2994 RMK AO2
KOJA 201735Z AUTO 18017G29KT 10SM SCT034 SCT045 24/16 A2995 RMK AO2
KOJA 201715Z AUTO 18019G24KT 10SM SCT034 23/16 A2997 RMK AO2
KOJA 201655Z AUTO 17019G24KT 10SM CLR 23/16 A2996 RMK AO2
KOJA 201635Z AUTO 17016G26KT 10SM CLR 23/16 A2995 RMK AO2
KOJA 201615Z AUTO 18014G21KT 10SM CLR 23/16 A2995 RMK AO2
KOJA 201555Z AUTO 17012G21KT 10SM CLR 22/16 A2996 RMK AO2
KOJA 201535Z AUTO 17015G19KT 10SM CLR 21/16 A2997 RMK AO2
KOJA 201515Z AUTO 17014G19KT 10SM CLR 20/16 A2998 RMK AO2
KOJA 201455Z AUTO 18013G18KT 10SM CLR 20/16 A2998 RMK AO2
KOJA 201435Z AUTO 16012G18KT 10SM CLR 18/16 A2999 RMK AO2
KOJA 201415Z AUTO 16010G17KT 10SM CLR 17/15 A2999 RMK AO2
KOJA 201355Z AUTO 17014G18KT 10SM CLR 17/15 A2999 RMK AO2
KOJA 201335Z AUTO 17013KT 10SM CLR 16/15 A2999 RMK AO2
KOJA 201315Z AUTO 17011G16KT 10SM CLR 16/15 A3000 RMK AO2
KOJA 201255Z AUTO 17010KT 10SM CLR 16/14 A3000 RMK AO2
KOJA 201235Z AUTO 17013G17KT 10SM CLR 16/14 A3001 RMK AO2
KOJA 201215Z AUTO 17012G16KT 10SM CLR 16/14 A3001 RMK AO2
KOJA 201155Z AUTO 17009G14KT 10SM CLR 16/14 A3002 RMK AO2
KOJA 201135Z AUTO 16007KT 10SM CLR 16/13 A3002 RMK AO2
KOJA 201115Z AUTO 17007KT 10SM CLR 16/13 A3002 RMK AO2
KOJA 201055Z AUTO 17008KT 10SM CLR 16/13 A3003 RMK AO2
KOJA 201035Z AUTO 17009KT 10SM CLR 16/13 A3002 RMK AO2
KOJA 201015Z AUTO 17008KT 10SM CLR 16/13 A3002 RMK AO2
KOJA 200955Z AUTO 16009G16KT 10SM SCT047 BKN120 17/13 A3003 RMK AO2
KOJA 200935Z AUTO 16011G16KT 10SM SCT050 BKN120 16/13 A3002 RMK AO2
KOJA 200915Z AUTO 16009G14KT 10SM SCT050 SCT120 16/12 A3003 RMK AO2
KOJA 200855Z AUTO 16012G17KT 10SM SCT120 16/12 A3004 RMK AO2
KOJA 200835Z AUTO 16010KT 10SM CLR 16/12 A3004 RMK AO2
KOJA 200815Z AUTO 16008KT 10SM CLR 16/12 A3004 RMK AO2
KOJA 200755Z AUTO 17010G14KT 10SM CLR 16/12 A3004 RMK AO2
KOJA 200735Z AUTO 16010KT 10SM CLR 15/11 A3004 RMK AO2
KOJA 200715Z AUTO 16009KT 10SM CLR 16/11 A3005 RMK AO2
KOJA 200655Z AUTO 16009G14KT 10SM CLR 16/11 A3005 RMK AO2
KOJA 200635Z AUTO 15008KT 10SM CLR 16/10 A3005 RMK AO2
KOJA 200615Z AUTO 16008KT 10SM CLR 16/10 A3006 RMK AO2
KOJA 200555Z AUTO 15007KT 10SM CLR 16/10 A3006 RMK AO2